Time;durP1;ratioP1;P1;durP2;ratioP2;P2;SDS_P1;SDS_P2;PMS_P1;PMS_P2;Temp;Humidity;BMP_temperature;BMP_pressure;BME280_temperature;BME280_humidity;BME280_pressure;Samples;Min_cycle;Max_cycle;Signal;HPM_P1;HPM_P2
2021/08/27 00:01:34;;;;;;;19.63;4.43;;;12.20;99.90;;;;;;4955072;28;20046;-78
2021/08/27 00:04:02;;;;;;;12.13;3.65;;;12.20;99.90;;;;;;4988272;28;20090;-78
2021/08/27 00:06:29;;;;;;;13.80;4.45;;;12.20;99.90;;;;;;4987744;28;20280;-78
2021/08/27 00:08:56;;;;;;;17.45;4.80;;;12.10;99.90;;;;;;4988475;28;20057;-78
2021/08/27 00:11:24;;;;;;;7.60;3.30;;;12.20;99.90;;;;;;4988141;28;20054;-76
2021/08/27 00:13:53;;;;;;;11.18;3.42;;;12.20;99.90;;;;;;4988246;28;20184;-77
2021/08/27 00:16:19;;;;;;;19.38;4.63;;;12.20;99.90;;;;;;5018399;28;20050;-77
2021/08/27 00:18:46;;;;;;;9.52;3.47;;;12.20;99.90;;;;;;4987423;28;20046;-78
2021/08/27 00:21:13;;;;;;;14.65;4.28;;;12.20;99.90;;;;;;4969771;28;20275;-77
2021/08/27 00:23:40;;;;;;;17.63;4.90;;;12.10;99.90;;;;;;4952168;28;20450;-77
2021/08/27 00:26:07;;;;;;;16.70;5.35;;;12.10;99.90;;;;;;4977173;28;20046;-77
2021/08/27 00:28:33;;;;;;;19.80;4.68;;;12.10;99.90;;;;;;4956159;28;20055;-78
2021/08/27 00:31:00;;;;;;;15.82;5.43;;;12.10;99.90;;;;;;4968032;28;20420;-77
2021/08/27 00:33:27;;;;;;;14.40;4.45;;;12.20;99.90;;;;;;4952870;28;20058;-77
2021/08/27 00:35:54;;;;;;;9.63;4.05;;;12.20;99.90;;;;;;4969850;28;20061;-77
2021/08/27 00:38:21;;;;;;;16.05;4.88;;;12.20;99.90;;;;;;4951181;28;20051;-77
2021/08/27 00:40:48;;;;;;;10.77;4.45;;;12.20;99.90;;;;;;4967039;28;20066;-78
2021/08/27 00:43:15;;;;;;;12.15;4.60;;;12.20;99.90;;;;;;4967847;28;20295;-78
2021/08/27 00:45:46;;;;;;;14.23;4.82;;;12.30;99.90;;;;;;4950696;28;20101;-78
2021/08/27 00:48:13;;;;;;;15.85;4.18;;;12.30;99.90;;;;;;4937357;28;20054;-77
2021/08/27 00:50:41;;;;;;;8.68;4.05;;;12.30;99.90;;;;;;4965823;28;20050;-78
2021/08/27 00:53:08;;;;;;;8.07;4.18;;;12.30;99.90;;;;;;4966993;28;20083;-77
2021/08/27 00:55:35;;;;;;;14.20;5.38;;;12.30;99.90;;;;;;4975688;28;20474;-77
2021/08/27 00:58:03;;;;;;;15.65;5.18;;;12.30;99.90;;;;;;4955745;28;20047;-78
2021/08/27 01:00:30;;;;;;;25.33;6.65;;;12.20;99.90;;;;;;4961848;28;20129;-77
2021/08/27 01:02:57;;;;;;;12.20;4.75;;;12.20;99.90;;;;;;4969430;28;20050;-78
2021/08/27 01:05:25;;;;;;;13.10;4.28;;;12.30;99.90;;;;;;4953009;28;20042;-78
2021/08/27 01:07:59;;;;;;;8.27;5.13;;;12.20;99.90;;;;;;4969115;28;20051;-77
2021/08/27 01:10:31;;;;;;;14.60;5.13;;;12.20;99.90;;;;;;4989044;28;20040;-78
2021/08/27 01:13:18;;;;;;;13.07;5.25;;;12.30;99.90;;;;;;4973592;28;20050;-77
2021/08/27 01:15:55;;;;;;;15.15;5.70;;;12.30;99.90;;;;;;4978051;28;20041;-77
2021/08/27 01:18:39;;;;;;;13.80;5.78;;;12.30;99.90;;;;;;4987419;28;20130;-78
2021/08/27 01:21:32;;;;;;;17.20;5.68;;;12.30;99.90;;;;;;5029115;28;20032;-76
2021/08/27 01:24:02;;;;;;;8.93;4.95;;;12.20;99.90;;;;;;5003446;28;20050;-75
2021/08/27 01:26:36;;;;;;;14.07;6.10;;;12.10;99.90;;;;;;5028626;28;20050;-76
2021/08/27 01:29:06;;;;;;;17.00;6.35;;;12.10;99.90;;;;;;4985008;28;20054;-77
2021/08/27 01:31:46;;;;;;;12.55;7.15;;;12.10;99.90;;;;;;4957366;28;20054;-78
2021/08/27 01:34:28;;;;;;;20.33;6.60;;;12.10;99.90;;;;;;4958498;28;20145;-78
2021/08/27 01:36:56;;;;;;;12.80;6.45;;;12.20;99.90;;;;;;4972799;28;20050;-77
2021/08/27 01:39:28;;;;;;;11.88;7.07;;;12.10;99.90;;;;;;4988150;28;20054;-79
2021/08/27 01:41:58;;;;;;;16.23;8.57;;;12.10;99.90;;;;;;4989486;28;20077;-76
2021/08/27 01:44:29;;;;;;;24.80;8.93;;;12.00;99.90;;;;;;4971025;28;20472;-77
2021/08/27 01:47:00;;;;;;;18.75;8.98;;;12.00;99.90;;;;;;5004899;28;20141;-77
2021/08/27 01:49:31;;;;;;;16.10;9.30;;;12.10;99.90;;;;;;4970407;28;20050;-76
2021/08/27 01:52:05;;;;;;;19.70;8.75;;;12.10;99.90;;;;;;4962468;28;20049;-76
2021/08/27 01:54:33;;;;;;;21.08;9.18;;;12.00;99.90;;;;;;5008351;28;20038;-76
2021/08/27 01:57:00;;;;;;;15.68;8.80;;;12.10;99.90;;;;;;5048300;28;20046;-76
2021/08/27 01:59:32;;;;;;;22.13;9.55;;;12.10;99.90;;;;;;5009091;28;20153;-76
2021/08/27 02:02:01;;;;;;;22.73;10.60;;;12.10;99.90;;;;;;4975619;28;20101;-75
2021/08/27 02:04:31;;;;;;;17.83;9.55;;;12.00;99.90;;;;;;4993896;28;20030;-75
2021/08/27 02:06:58;;;;;;;17.42;9.80;;;12.00;99.90;;;;;;5028845;28;20038;-76
2021/08/27 02:09:25;;;;;;;21.67;10.18;;;12.00;99.90;;;;;;5011055;28;20042;-76
2021/08/27 02:11:53;;;;;;;19.33;10.27;;;12.10;99.90;;;;;;4994878;28;20104;-77
2021/08/27 02:14:20;;;;;;;27.00;12.18;;;12.10;99.90;;;;;;4984261;28;20047;-77
2021/08/27 02:16:47;;;;;;;23.33;11.18;;;12.20;99.90;;;;;;4984458;28;20047;-76
2021/08/27 02:19:14;;;;;;;21.70;11.80;;;12.10;99.90;;;;;;4968062;28;20085;-77
2021/08/27 02:21:46;;;;;;;24.98;11.82;;;12.10;99.90;;;;;;4965176;28;20046;-76
2021/08/27 02:24:17;;;;;;;20.27;11.70;;;12.10;99.90;;;;;;4963465;28;20570;-76
2021/08/27 02:26:46;;;;;;;19.52;12.15;;;12.10;99.90;;;;;;4980046;28;20041;-77
2021/08/27 02:29:15;;;;;;;26.35;12.88;;;12.10;99.90;;;;;;4984684;28;20143;-76
2021/08/27 02:31:45;;;;;;;22.77;13.77;;;12.10;99.90;;;;;;4986259;28;20106;-76
2021/08/27 02:34:13;;;;;;;26.70;14.15;;;12.10;99.90;;;;;;4986743;28;20046;-76
2021/08/27 02:36:43;;;;;;;23.42;13.20;;;12.00;99.90;;;;;;4970929;28;20136;-76
2021/08/27 02:39:14;;;;;;;21.25;13.70;;;12.00;99.90;;;;;;5018970;28;20284;-76
2021/08/27 02:41:41;;;;;;;21.10;13.13;;;11.90;99.90;;;;;;5018681;28;20046;-77
2021/08/27 02:44:07;;;;;;;24.30;14.88;;;11.90;99.90;;;;;;5003237;28;20050;-76
2021/08/27 02:46:34;;;;;;;25.75;14.10;;;12.00;99.90;;;;;;4987116;28;20200;-77
2021/08/27 02:49:01;;;;;;;23.42;15.35;;;12.10;99.90;;;;;;4970028;28;20054;-76
2021/08/27 02:51:40;;;;;;;27.13;15.35;;;12.10;99.90;;;;;;4985110;28;20049;-76
2021/08/27 02:54:09;;;;;;;25.95;14.15;;;12.10;99.90;;;;;;4967438;28;20062;-76
2021/08/27 02:56:39;;;;;;;25.88;15.40;;;12.10;99.90;;;;;;4994820;28;20050;-76
2021/08/27 02:59:11;;;;;;;26.45;15.63;;;12.00;99.90;;;;;;4974998;28;20104;-76
2021/08/27 03:01:50;;;;;;;26.98;14.55;;;11.90;99.90;;;;;;4969510;28;20054;-77
2021/08/27 03:04:57;;;;;;;26.80;15.02;;;11.90;99.90;;;;;;4970185;28;20064;-76
2021/08/27 03:07:29;;;;;;;25.98;14.05;;;12.00;99.90;;;;;;4966347;28;20074;-77
2021/08/27 03:10:05;;;;;;;24.98;13.90;;;12.00;99.90;;;;;;5001130;28;20108;-76
2021/08/27 03:13:08;;;;;;;29.05;14.20;;;11.90;99.90;;;;;;4954276;28;20108;-77
2021/08/27 03:15:58;;;;;;;25.17;12.80;;;11.90;99.90;;;;;;4984234;28;20796;-77
2021/08/27 03:19:14;;;;;;;22.92;12.00;;;12.00;99.90;;;;;;4984990;28;20105;-77
2021/08/27 03:21:46;;;;;;;26.45;13.88;;;11.90;99.90;;;;;;4980728;28;20065;-77
2021/08/27 03:24:25;;;;;;;26.88;12.90;;;11.90;99.90;;;;;;4986837;28;20474;-76
2021/08/27 03:27:00;;;;;;;21.60;12.57;;;11.80;99.90;;;;;;4993444;28;20507;-76
2021/08/27 03:29:30;;;;;;;27.67;13.20;;;11.80;99.90;;;;;;4971783;28;20120;-79
2021/08/27 03:31:58;;;;;;;25.05;12.52;;;11.80;99.90;;;;;;4986574;28;20042;-76
2021/08/27 03:34:26;;;;;;;26.90;14.15;;;11.80;99.90;;;;;;4985615;28;20552;-77
2021/08/27 03:36:56;;;;;;;27.70;13.90;;;11.90;99.90;;;;;;4969485;28;20277;-77
2021/08/27 03:39:24;;;;;;;27.40;15.52;;;11.90;99.90;;;;;;4986600;28;20146;-77
2021/08/27 03:41:52;;;;;;;31.55;14.63;;;11.80;99.90;;;;;;4963222;28;20058;-77
2021/08/27 03:44:19;;;;;;;26.23;14.00;;;11.80;99.90;;;;;;4952021;28;20105;-78
2021/08/27 03:46:46;;;;;;;26.65;14.75;;;11.80;99.90;;;;;;4977721;28;20732;-78
2021/08/27 03:49:15;;;;;;;32.35;16.63;;;11.90;99.90;;;;;;4970764;28;20112;-77
2021/08/27 03:51:45;;;;;;;29.13;17.33;;;11.90;99.90;;;;;;4990627;28;20038;-77
2021/08/27 03:54:27;;;;;;;30.25;16.40;;;11.80;99.90;;;;;;4977037;28;20059;-77
2021/08/27 03:56:54;;;;;;;23.23;14.68;;;11.80;99.90;;;;;;4982740;28;20045;-78
2021/08/27 03:59:22;;;;;;;27.23;14.77;;;11.80;99.90;;;;;;4988304;28;20051;-78
2021/08/27 04:01:50;;;;;;;25.73;14.98;;;11.80;99.90;;;;;;4971938;28;20051;-78
2021/08/27 04:04:21;;;;;;;29.02;14.73;;;11.70;99.90;;;;;;4971255;28;20046;-78
2021/08/27 04:07:02;;;;;;;21.27;14.13;;;11.70;99.90;;;;;;5003020;28;20054;-78
2021/08/27 04:09:32;;;;;;;31.13;14.65;;;11.80;99.90;;;;;;4986671;28;20100;-78
2021/08/27 04:12:01;;;;;;;24.20;14.75;;;11.90;99.90;;;;;;4987219;28;20050;-77
2021/08/27 04:14:30;;;;;;;25.70;14.38;;;11.90;99.90;;;;;;4969105;28;20054;-76
2021/08/27 04:16:59;;;;;;;23.60;13.65;;;12.00;99.90;;;;;;4983504;28;20321;-76
2021/08/27 04:19:25;;;;;;;25.33;13.63;;;12.00;99.90;;;;;;4968531;28;20054;-79
2021/08/27 04:21:52;;;;;;;24.15;14.00;;;11.90;99.90;;;;;;4993457;28;20061;-76
2021/08/27 04:24:19;;;;;;;31.67;15.15;;;12.00;99.90;;;;;;4969571;28;20054;-77
2021/08/27 04:26:46;;;;;;;26.85;14.18;;;11.90;99.90;;;;;;4987995;28;20073;-76
2021/08/27 04:29:13;;;;;;;27.35;16.20;;;11.90;99.90;;;;;;4984758;28;20049;-76
2021/08/27 04:31:41;;;;;;;28.13;14.13;;;11.90;99.90;;;;;;4968156;28;20054;-77
2021/08/27 04:34:07;;;;;;;23.48;14.05;;;11.80;99.90;;;;;;4969463;28;20046;-77
2021/08/27 04:36:34;;;;;;;21.55;14.70;;;11.80;99.90;;;;;;4983944;28;20046;-76
2021/08/27 04:39:01;;;;;;;24.27;15.68;;;11.80;99.90;;;;;;4969134;28;20062;-76
2021/08/27 04:41:28;;;;;;;34.72;17.40;;;11.70;99.90;;;;;;4988977;28;20416;-79
2021/08/27 04:43:55;;;;;;;23.67;15.45;;;11.70;99.90;;;;;;4971567;28;20047;-78
2021/08/27 04:46:22;;;;;;;32.45;15.63;;;11.80;99.90;;;;;;4969557;28;20046;-78
2021/08/27 04:48:49;;;;;;;29.20;16.88;;;11.80;99.90;;;;;;5003755;28;20119;-78
2021/08/27 04:51:16;;;;;;;24.98;14.85;;;11.70;99.90;;;;;;4967126;28;20053;-77
2021/08/27 04:53:42;;;;;;;32.83;17.02;;;11.80;99.90;;;;;;4969093;28;20050;-77
2021/08/27 04:56:09;;;;;;;33.80;16.42;;;11.70;99.90;;;;;;4988444;28;20407;-78
2021/08/27 04:58:36;;;;;;;29.23;17.38;;;11.70;99.90;;;;;;5001608;28;20042;-79
2021/08/27 05:01:03;;;;;;;32.83;17.83;;;11.70;99.90;;;;;;4967985;28;20054;-79
2021/08/27 05:03:31;;;;;;;35.58;18.42;;;11.70;99.90;;;;;;4935118;28;20074;-76
2021/08/27 05:05:58;;;;;;;31.85;17.52;;;11.70;99.90;;;;;;4983623;28;20046;-76
2021/08/27 05:08:25;;;;;;;34.85;17.77;;;11.80;99.90;;;;;;4956623;28;20054;-76
2021/08/27 05:10:52;;;;;;;30.92;16.40;;;11.70;99.90;;;;;;5016425;28;20395;-76
2021/08/27 05:13:21;;;;;;;34.72;15.93;;;11.80;99.90;;;;;;4968239;28;20467;-77
2021/08/27 05:15:47;;;;;;;33.28;16.75;;;11.80;99.90;;;;;;5016885;28;20058;-77
2021/08/27 05:18:14;;;;;;;28.20;16.00;;;11.80;99.90;;;;;;4968319;28;20138;-76
2021/08/27 05:20:41;;;;;;;26.55;15.82;;;11.80;99.90;;;;;;4971957;28;20050;-77
2021/08/27 05:23:08;;;;;;;28.20;15.38;;;11.80;99.90;;;;;;4984059;28;20187;-76
2021/08/27 05:25:34;;;;;;;32.63;16.02;;;11.90;99.90;;;;;;4989596;28;20240;-78
2021/08/27 05:28:01;;;;;;;28.55;15.88;;;11.80;99.90;;;;;;4990608;28;20058;-77
2021/08/27 05:30:28;;;;;;;26.70;17.15;;;11.80;99.90;;;;;;4968112;28;20058;-78
2021/08/27 05:32:55;;;;;;;30.90;17.13;;;11.80;99.90;;;;;;4969446;28;20109;-77
2021/08/27 05:35:23;;;;;;;29.90;16.80;;;11.80;99.90;;;;;;5016792;28;20050;-77
2021/08/27 05:37:50;;;;;;;23.42;13.85;;;11.90;99.90;;;;;;5018513;28;20043;-78
2021/08/27 05:40:17;;;;;;;27.80;14.00;;;11.90;99.90;;;;;;5001374;28;20050;-78
2021/08/27 05:42:44;;;;;;;23.85;14.15;;;11.90;99.90;;;;;;4969283;28;20562;-77
2021/08/27 05:45:12;;;;;;;24.88;12.02;;;11.90;99.90;;;;;;4985115;28;20058;-77
2021/08/27 05:47:39;;;;;;;25.75;14.55;;;12.00;99.90;;;;;;4984945;28;20180;-77
2021/08/27 05:50:07;;;;;;;26.15;14.02;;;11.90;99.90;;;;;;4974443;28;20108;-78
2021/08/27 05:52:34;;;;;;;30.08;16.27;;;11.90;99.90;;;;;;4964396;28;20097;-78
2021/08/27 05:55:01;;;;;;;27.90;17.63;;;11.90;99.90;;;;;;4965004;28;20112;-78
2021/08/27 05:57:28;;;;;;;37.58;17.75;;;11.90;99.90;;;;;;4978367;28;20164;-77
2021/08/27 05:59:55;;;;;;;30.27;17.92;;;11.90;99.90;;;;;;4954728;28;20074;-78
2021/08/27 06:02:22;;;;;;;32.95;19.85;;;12.00;99.90;;;;;;4950112;28;20170;-78
2021/08/27 06:04:49;;;;;;;44.03;20.55;;;12.00;99.90;;;;;;4962243;28;20042;-77
2021/08/27 06:07:16;;;;;;;38.28;19.73;;;12.00;99.90;;;;;;4974275;28;20502;-77
2021/08/27 06:09:42;;;;;;;40.88;19.80;;;12.10;99.90;;;;;;4990074;28;20065;-77
2021/08/27 06:12:10;;;;;;;37.83;20.20;;;12.00;99.90;;;;;;4973835;28;20042;-77
2021/08/27 06:14:37;;;;;;;43.67;20.58;;;11.90;99.90;;;;;;4991732;28;20117;-77
2021/08/27 06:17:04;;;;;;;42.17;20.58;;;11.90;99.90;;;;;;4990211;28;20104;-77
2021/08/27 06:19:31;;;;;;;37.25;19.67;;;11.80;99.90;;;;;;4982153;28;20077;-78
2021/08/27 06:21:58;;;;;;;43.25;21.30;;;11.80;99.90;;;;;;4988697;28;20042;-78
2021/08/27 06:24:25;;;;;;;29.90;18.30;;;11.90;99.90;;;;;;4973663;28;20045;-78
2021/08/27 06:26:52;;;;;;;29.95;17.92;;;11.90;99.90;;;;;;5009877;28;20076;-77
2021/08/27 06:29:19;;;;;;;22.33;15.43;;;12.00;99.90;;;;;;4992293;28;20470;-78
2021/08/27 06:31:46;;;;;;;28.23;16.52;;;12.00;99.90;;;;;;4989055;28;20054;-78
2021/08/27 06:34:13;;;;;;;28.75;15.52;;;11.90;99.90;;;;;;5004300;28;20325;-77
2021/08/27 06:36:40;;;;;;;33.85;17.30;;;11.90;99.90;;;;;;4986706;28;20046;-77
2021/08/27 06:39:07;;;;;;;29.23;17.30;;;12.00;99.90;;;;;;5020930;28;20050;-77
2021/08/27 06:41:34;;;;;;;33.10;17.40;;;12.00;99.90;;;;;;5000006;28;20109;-77
2021/08/27 06:44:00;;;;;;;31.73;16.27;;;12.00;99.90;;;;;;4999285;28;20046;-76
2021/08/27 06:46:28;;;;;;;31.67;17.55;;;12.00;99.90;;;;;;4987557;28;20629;-77
2021/08/27 06:48:55;;;;;;;31.90;17.92;;;12.10;99.90;;;;;;4988525;28;20042;-77
2021/08/27 06:51:22;;;;;;;30.77;18.42;;;12.20;99.90;;;;;;4970857;28;20137;-77
2021/08/27 06:53:53;;;;;;;28.80;15.38;;;12.20;99.90;;;;;;4976742;28;20116;-77
2021/08/27 06:56:23;;;;;;;26.40;14.95;;;12.10;99.90;;;;;;4993284;28;20563;-77
2021/08/27 06:58:50;;;;;;;24.02;16.23;;;12.10;99.90;;;;;;4972794;28;20065;-76
2021/08/27 07:01:17;;;;;;;28.00;15.32;;;12.20;99.90;;;;;;4970541;28;20295;-77
2021/08/27 07:03:44;;;;;;;21.33;14.75;;;12.20;99.90;;;;;;5004469;28;20057;-77
2021/08/27 07:06:12;;;;;;;25.55;14.23;;;12.20;99.90;;;;;;5019816;28;20105;-77
2021/08/27 07:08:40;;;;;;;16.38;11.60;;;12.30;99.90;;;;;;4988103;28;20057;-77
2021/08/27 07:11:07;;;;;;;20.00;12.98;;;12.30;99.90;;;;;;4986831;28;20066;-77
2021/08/27 07:13:34;;;;;;;19.75;13.63;;;12.20;99.90;;;;;;4956323;28;20522;-77
2021/08/27 07:16:01;;;;;;;24.58;15.27;;;12.30;99.90;;;;;;5019881;28;20714;-77
2021/08/27 07:18:27;;;;;;;23.27;14.40;;;12.40;99.90;;;;;;5003759;28;20054;-77
2021/08/27 07:20:55;;;;;;;24.25;13.77;;;12.40;99.90;;;;;;4972359;28;20207;-78
2021/08/27 07:23:22;;;;;;;29.52;14.35;;;12.50;99.90;;;;;;4974654;28;20038;-77
2021/08/27 07:25:49;;;;;;;25.27;13.95;;;12.50;99.90;;;;;;4994925;28;20117;-78
2021/08/27 07:28:16;;;;;;;25.98;13.52;;;12.50;99.90;;;;;;4993103;28;20065;-77
2021/08/27 07:30:44;;;;;;;20.85;12.27;;;12.60;99.90;;;;;;4989587;28;20127;-77
2021/08/27 07:33:11;;;;;;;25.80;13.70;;;12.60;99.90;;;;;;4987147;28;20050;-78
2021/08/27 07:35:38;;;;;;;18.88;13.45;;;12.50;99.90;;;;;;4987770;28;20077;-78
2021/08/27 07:38:04;;;;;;;22.45;13.27;;;12.60;99.90;;;;;;4988121;28;20680;-77
2021/08/27 07:40:31;;;;;;;19.58;12.90;;;12.60;99.90;;;;;;4987728;28;20057;-78
2021/08/27 07:43:00;;;;;;;22.55;13.70;;;12.70;99.90;;;;;;4988037;28;20054;-77
2021/08/27 07:45:29;;;;;;;24.92;14.32;;;12.60;99.90;;;;;;4986502;28;20065;-77
2021/08/27 07:47:55;;;;;;;28.15;15.73;;;12.60;99.90;;;;;;5004468;28;20117;-77
2021/08/27 07:50:22;;;;;;;26.75;15.45;;;12.60;99.90;;;;;;5018875;28;20073;-77
2021/08/27 07:52:49;;;;;;;31.13;16.83;;;12.60;99.90;;;;;;4971077;28;20470;-78
2021/08/27 07:55:16;;;;;;;25.05;16.38;;;12.70;99.90;;;;;;4988126;28;20127;-78
2021/08/27 07:57:43;;;;;;;36.40;18.83;;;12.60;99.90;;;;;;4978356;28;20077;-78
2021/08/27 08:00:11;;;;;;;27.38;17.38;;;12.70;99.90;;;;;;4970651;28;20050;-78
2021/08/27 08:02:38;;;;;;;31.23;17.30;;;12.60;99.90;;;;;;4970361;28;20042;-78
2021/08/27 08:05:06;;;;;;;27.33;14.95;;;12.80;99.90;;;;;;5019453;28;20046;-77
2021/08/27 08:07:33;;;;;;;32.10;16.27;;;12.70;99.90;;;;;;4969825;28;20038;-77
2021/08/27 08:10:00;;;;;;;27.27;15.85;;;12.80;99.90;;;;;;4986867;28;20102;-77
2021/08/27 08:12:27;;;;;;;20.23;12.65;;;12.80;99.90;;;;;;4986713;28;20079;-77
2021/08/27 08:14:54;;;;;;;20.00;13.48;;;12.60;99.90;;;;;;4972635;28;20149;-77
2021/08/27 08:17:21;;;;;;;23.30;14.32;;;12.70;99.90;;;;;;5017842;28;20054;-77
2021/08/27 08:19:47;;;;;;;25.90;15.25;;;12.60;99.90;;;;;;4985220;28;20062;-77
2021/08/27 08:22:14;;;;;;;21.23;13.13;;;12.70;99.90;;;;;;4985052;28;20130;-77
2021/08/27 08:24:41;;;;;;;27.83;14.82;;;12.70;99.90;;;;;;4986763;28;20101;-77
2021/08/27 08:27:08;;;;;;;22.60;14.20;;;12.70;99.90;;;;;;4975583;28;20068;-77
2021/08/27 08:29:34;;;;;;;20.48;14.52;;;12.80;99.90;;;;;;4969142;28;20042;-77
2021/08/27 08:32:01;;;;;;;26.40;12.35;;;12.80;99.90;;;;;;4985411;28;20053;-76
2021/08/27 08:34:28;;;;;;;20.83;13.23;;;12.80;99.90;;;;;;4950829;28;20093;-76
2021/08/27 08:36:55;;;;;;;23.27;14.40;;;12.70;99.90;;;;;;4983837;28;20108;-78
2021/08/27 08:39:22;;;;;;;23.90;15.20;;;12.70;99.90;;;;;;4969063;28;20038;-78
2021/08/27 08:41:50;;;;;;;20.50;13.35;;;12.70;99.90;;;;;;4969045;28;20050;-77
2021/08/27 08:44:17;;;;;;;22.95;14.27;;;12.70;99.90;;;;;;4982231;28;20153;-78
2021/08/27 08:46:47;;;;;;;30.23;16.58;;;12.70;99.90;;;;;;4968480;28;20050;-77
2021/08/27 08:49:22;;;;;;;;;;;12.80;99.90;;;;;;5102295;27;20547;-77
2021/08/27 08:51:51;;;;;;;27.90;14.68;;;12.80;99.90;;;;;;5036688;28;20636;-77
2021/08/27 08:54:19;;;;;;;27.67;13.90;;;12.90;99.90;;;;;;5042335;28;20045;-77
2021/08/27 08:56:46;;;;;;;24.95;13.43;;;13.00;99.90;;;;;;5040591;28;20122;-77
2021/08/27 08:59:14;;;;;;;22.73;13.05;;;13.00;99.90;;;;;;5007392;28;20053;-77
2021/08/27 09:01:41;;;;;;;21.63;13.05;;;12.90;99.90;;;;;;5022009;28;20049;-77
2021/08/27 09:04:08;;;;;;;19.65;12.07;;;13.00;99.90;;;;;;5040235;28;20593;-77
2021/08/27 09:06:36;;;;;;;20.95;13.10;;;13.00;99.90;;;;;;5007229;28;20072;-78
2021/08/27 09:09:03;;;;;;;18.55;11.60;;;13.10;99.90;;;;;;5069534;28;20060;-78
2021/08/27 09:11:31;;;;;;;20.52;13.20;;;13.20;99.90;;;;;;5021875;28;20061;-78
2021/08/27 09:14:00;;;;;;;17.45;10.98;;;13.30;99.90;;;;;;5052101;28;20041;-78
2021/08/27 09:16:32;;;;;;;14.40;8.80;;;13.40;99.90;;;;;;5039572;28;20091;-77
2021/08/27 09:19:00;;;;;;;18.33;10.63;;;13.50;99.90;;;;;;5039553;28;20049;-77
2021/08/27 09:21:45;;;;;;;16.05;9.52;;;13.70;99.90;;;;;;5056818;28;20053;-77
2021/08/27 09:24:14;;;;;;;13.30;8.65;;;13.80;99.90;;;;;;5054809;28;20053;-78
2021/08/27 09:26:44;;;;;;;11.65;8.20;;;13.90;99.90;;;;;;5040740;28;20045;-78
2021/08/27 09:29:11;;;;;;;14.85;9.60;;;13.90;99.90;;;;;;5024688;28;20048;-77
2021/08/27 09:31:40;;;;;;;17.42;9.05;;;13.80;99.90;;;;;;5042566;28;20041;-77
2021/08/27 09:34:07;;;;;;;14.90;7.60;;;13.80;99.90;;;;;;5035215;28;20584;-77
2021/08/27 09:36:34;;;;;;;13.55;8.55;;;13.80;99.90;;;;;;5020035;28;20046;-77
2021/08/27 09:39:12;;;;;;;15.57;8.85;;;13.80;99.90;;;;;;5070724;28;20132;-78
2021/08/27 09:41:55;;;;;;;16.95;8.85;;;13.70;99.90;;;;;;5039823;28;20045;-77
2021/08/27 09:44:23;;;;;;;14.27;8.63;;;13.80;99.90;;;;;;5023150;28;20076;-77
2021/08/27 09:46:49;;;;;;;10.75;8.40;;;13.80;99.90;;;;;;5073255;28;20052;-77
2021/08/27 09:49:36;;;;;;;14.60;7.70;;;13.70;99.90;;;;;;5039880;28;20107;-77
2021/08/27 09:52:09;;;;;;;13.88;7.88;;;13.80;99.90;;;;;;5040013;28;20079;-77
2021/08/27 09:54:39;;;;;;;14.13;8.30;;;13.70;99.90;;;;;;5039527;28;20055;-77
2021/08/27 09:57:08;;;;;;;16.63;7.55;;;13.80;99.90;;;;;;5035493;28;20040;-77
2021/08/27 09:59:47;;;;;;;13.68;8.60;;;14.00;99.90;;;;;;5033596;28;20068;-78
2021/08/27 10:02:16;;;;;;;10.05;5.88;;;14.10;99.90;;;;;;5026485;28;20121;-78
2021/08/27 10:04:52;;;;;;;20.40;8.57;;;14.10;99.90;;;;;;5033355;28;20045;-78
2021/08/27 10:07:37;;;;;;;;;;;14.20;99.90;;;;;;5026420;28;20041;-76
2021/08/27 10:10:06;;;;;;;14.07;6.53;;;14.30;99.90;;;;;;5025651;28;19948;-75
2021/08/27 10:12:36;;;;;;;9.77;6.68;;;14.40;99.90;;;;;;5026428;28;20445;-76
2021/08/27 10:15:08;;;;;;;12.13;6.63;;;14.50;99.90;;;;;;5008650;28;20037;-78
2021/08/27 10:17:36;;;;;;;14.63;6.70;;;14.40;99.90;;;;;;5026681;28;20046;-76
2021/08/27 10:20:07;;;;;;;16.83;8.35;;;14.50;99.90;;;;;;5009005;28;20126;-76
2021/08/27 10:22:41;;;;;;;8.70;6.13;;;14.50;99.90;;;;;;5009639;28;20053;-76
2021/08/27 10:25:12;;;;;;;16.42;6.55;;;14.30;99.90;;;;;;5020364;28;20047;-76
2021/08/27 10:27:39;;;;;;;10.38;5.97;;;14.20;99.90;;;;;;5041891;28;20046;-77
2021/08/27 10:30:07;;;;;;;10.98;6.85;;;14.10;99.90;;;;;;5007319;28;20037;-77
2021/08/27 10:32:38;;;;;;;13.77;6.88;;;14.20;99.90;;;;;;5030208;28;20037;-77
2021/08/27 10:35:07;;;;;;;11.57;6.70;;;14.20;99.90;;;;;;5009473;28;20088;-77
2021/08/27 10:37:43;;;;;;;10.10;5.75;;;14.40;99.90;;;;;;5025142;28;20049;-77
2021/08/27 10:40:21;;;;;;;13.10;5.78;;;14.50;99.90;;;;;;5006626;28;20785;-77
2021/08/27 10:42:56;;;;;;;10.98;4.90;;;14.70;99.90;;;;;;5022816;28;20091;-77
2021/08/27 10:45:41;;;;;;;7.85;4.35;;;14.80;99.90;;;;;;5058945;28;20186;-77
2021/08/27 10:48:15;;;;;;;8.32;3.60;;;15.10;99.90;;;;;;5010001;28;20125;-77
2021/08/27 10:50:47;;;;;;;9.77;4.30;;;15.10;99.90;;;;;;5041587;28;20461;-77
2021/08/27 10:53:33;;;;;;;10.48;4.60;;;15.00;99.90;;;;;;5023514;28;20546;-77
2021/08/27 10:56:04;;;;;;;7.30;4.05;;;15.00;99.90;;;;;;5007933;28;20737;-77
2021/08/27 10:58:45;;;;;;;8.98;3.60;;;14.90;99.90;;;;;;5041136;28;20129;-77
2021/08/27 11:01:33;;;;;;;9.10;3.10;;;14.90;99.90;;;;;;5007158;28;20568;-77
2021/08/27 11:04:23;;;;;;;7.40;3.35;;;15.00;99.90;;;;;;5034955;28;20045;-77
2021/08/27 11:06:58;;;;;;;10.80;3.35;;;15.00;99.90;;;;;;5041364;28;20053;-77
2021/08/27 11:09:30;;;;;;;12.88;3.50;;;15.00;99.90;;;;;;5041711;28;20053;-78
2021/08/27 11:12:16;;;;;;;11.57;4.15;;;15.00;99.90;;;;;;5023269;28;20053;-78
2021/08/27 11:14:50;;;;;;;12.48;4.40;;;14.90;99.90;;;;;;5025738;28;20587;-78
2021/08/27 11:17:18;;;;;;;11.02;4.38;;;14.80;99.90;;;;;;5008150;28;20128;-77
2021/08/27 11:19:56;;;;;;;11.63;4.82;;;14.30;99.90;;;;;;5009189;28;20049;-77
2021/08/27 11:22:30;;;;;;;11.95;5.60;;;14.10;99.90;;;;;;5058698;28;20256;-77
2021/08/27 11:25:11;;;;;;;17.25;6.15;;;14.00;99.90;;;;;;5040765;28;20581;-77
2021/08/27 11:27:39;;;;;;;13.48;5.78;;;13.80;99.90;;;;;;5019741;28;20103;-77
2021/08/27 11:30:27;;;;;;;12.82;5.18;;;13.90;99.90;;;;;;5023622;28;20672;-77
2021/08/27 11:32:55;;;;;;;8.23;4.72;;;14.10;99.90;;;;;;5057630;28;20045;-78
2021/08/27 11:35:23;;;;;;;13.90;6.18;;;14.20;99.90;;;;;;5025326;28;20060;-78
2021/08/27 11:37:58;;;;;;;9.93;4.18;;;14.70;99.90;;;;;;5010817;28;20064;-78
2021/08/27 11:40:25;;;;;;;10.13;4.82;;;15.10;99.90;;;;;;5009378;28;20048;-78
2021/08/27 11:42:55;;;;;;;6.80;3.03;;;15.70;99.90;;;;;;5024714;28;20393;-77
2021/08/27 11:45:25;;;;;;;10.00;4.35;;;15.70;99.90;;;;;;5042253;28;20115;-77
2021/08/27 11:48:00;;;;;;;6.15;3.17;;;15.60;99.90;;;;;;5024918;28;20290;-77
2021/08/27 11:50:40;;;;;;;6.93;2.60;;;15.50;99.90;;;;;;5007001;28;20049;-78
2021/08/27 11:53:08;;;;;;;7.25;2.42;;;15.10;99.90;;;;;;5021420;28;20050;-78
2021/08/27 11:55:43;;;;;;;10.32;4.07;;;14.90;99.90;;;;;;5028750;28;20037;-79
2021/08/27 11:58:10;;;;;;;;;;;14.60;99.90;;;;;;5026177;28;20079;-78
2021/08/27 12:00:39;;;;;;;12.10;4.93;;;14.50;99.90;;;;;;5029668;28;20434;-77
2021/08/27 12:03:08;;;;;;;9.32;5.63;;;14.60;99.90;;;;;;5006951;28;20041;-77
2021/08/27 12:05:35;;;;;;;8.77;5.78;;;14.50;99.90;;;;;;5025348;28;20069;-77
2021/08/27 12:08:03;;;;;;;10.15;4.95;;;14.70;99.90;;;;;;5007829;28;20057;-78
2021/08/27 12:10:32;;;;;;;10.70;6.30;;;14.70;99.90;;;;;;5006588;28;20042;-77
2021/08/27 12:13:01;;;;;;;12.65;5.03;;;14.70;99.90;;;;;;5023261;28;20626;-77
2021/08/27 12:15:34;;;;;;;6.25;4.68;;;14.50;99.90;;;;;;5023846;28;20045;-77
2021/08/27 12:18:10;;;;;;;10.13;4.65;;;14.50;99.90;;;;;;5037204;28;20143;-77
2021/08/27 12:20:45;;;;;;;8.50;3.65;;;14.60;99.90;;;;;;5025275;28;20394;-77
2021/08/27 12:23:18;;;;;;;4.53;2.75;;;14.60;99.90;;;;;;5023463;28;20048;-77
2021/08/27 12:25:58;;;;;;;8.23;3.33;;;14.60;99.90;;;;;;5019526;28;20055;-77
2021/08/27 12:28:37;;;;;;;4.45;2.83;;;14.80;99.90;;;;;;5027436;28;20068;-78
2021/08/27 12:31:05;;;;;;;4.20;2.33;;;14.90;99.90;;;;;;5000288;28;20054;-78
2021/08/27 12:33:39;;;;;;;6.57;2.70;;;14.90;99.90;;;;;;4989384;28;20292;-77
2021/08/27 12:36:11;;;;;;;6.72;3.20;;;14.90;99.90;;;;;;5016461;28;20038;-78
2021/08/27 12:38:39;;;;;;;6.35;3.78;;;14.90;99.90;;;;;;4987248;28;20133;-78
2021/08/27 12:41:15;;;;;;;5.75;3.80;;;14.80;99.90;;;;;;4999064;28;20183;-77
2021/08/27 12:43:42;;;;;;;;;;;14.70;99.90;;;;;;5003688;28;20057;-77
2021/08/27 12:46:31;;;;;;;2.28;1.75;;;14.50;99.90;;;;;;5032052;28;19921;-77
2021/08/27 12:49:21;;;;;;;4.38;2.00;;;14.20;99.90;;;;;;5027883;28;20049;-77